PST,Max TemperatureF,Mean TemperatureF,Min TemperatureF,Max Dew PointF,MeanDew PointF,Min DewpointF,Max Humidity, Mean Humidity, Min Humidity, Max Sea Level PressureIn, Mean Sea Level PressureIn, Min Sea Level PressureIn, Max VisibilityMiles, Mean VisibilityMiles, Min VisibilityMiles, Max Wind SpeedMPH, Mean Wind SpeedMPH, Max Gust SpeedMPH,PrecipitationIn, CloudCover, Events, WindDirDegrees
2012-12-1,57,51,44,45,40,35,92,68,43,29.75,29.63,29.47,10,10,10,28,9,35,0.01,4,Rain,168
2012-12-2,55,50,44,46,40,34,100,73,46,29.89,29.49,29.21,10,10,10,39,11,48,0.19,2,Rain,212
2012-12-3,58,51,44,39,36,33,76,62,47,30.05,29.98,29.83,10,10,10,21,10,24,T,5,,202
2012-12-4,62,54,46,47,44,35,86,70,54,29.82,29.77,29.73,10,10,10,25,11,33,0.07,7,Rain,163
2012-12-5,56,45,33,43,34,29,96,69,41,30.22,30.11,29.78,10,10,10,21,13,26,T,1,,227
2012-12-6,49,40,31,35,33,30,82,71,60,30.19,30.12,30.06,10,10,10,29,9,35,0.00,4,,222
2012-12-7,52,45,37,36,33,26,76,65,53,30.10,30.01,29.90,10,10,10,31,12,38,0.00,1,Snow,239
2012-12-8,44,38,31,32,29,26,92,75,57,30.38,30.22,30.08,10,10,9,14,6,17,0.00,5,Snow,279
2012-12-9,41,36,30,35,32,28,100,90,79,30.46,30.36,30.22,10,10,9,12,2,13,T,4,Snow,100
2012-12-10,38,34,30,38,33,28,100,96,92,30.36,30.25,30.08,10,2,0,12,2,14,T,7,Fog-Snow,337
2012-12-11,47,39,30,40,34,28,100,86,71,30.05,29.80,29.60,10,8,1,16,3,21,0.08,4,Rain,249
2012-12-12,45,39,32,39,34,30,100,88,76,30.04,29.86,29.61,10,7,0,12,3,13,T,7,Fog-Snow,353
2012-12-13,38,35,32,35,33,30,100,93,85,30.09,30.03,29.91,10,6,2,8,2,9,T,8,Snow,15
2012-12-14,37,35,33,34,33,30,100,93,85,30.01,29.89,29.84,10,8,3,9,3,12,0.02,8,Rain-Snow,162
2012-12-15,38,35,32,34,33,30,100,88,76,30.00,29.83,29.66,10,8,5,25,2,32,0.07,7,Rain-Snow,204
2012-12-16,50,41,32,39,33,28,89,69,49,29.80,29.61,29.20,10,10,9,29,9,37,0.09,6,Rain-Snow,186
2012-12-17,49,46,42,39,32,27,76,66,56,29.93,29.60,29.15,10,10,10,54,28,68,0.00,0,,225
2012-12-18,43,37,31,27,26,24,75,64,53,30.05,29.98,29.93,10,10,10,26,13,30,0.00,1,,223
2012-12-19,47,38,28,33,25,21,79,59,38,30.06,29.96,29.82,10,10,10,32,11,38,T,6,Rain,155
2012-12-20,60,51,41,37,27,20,86,56,25,29.90,29.77,29.68,10,10,10,33,21,41,0.01,6,Rain,166
2012-12-21,43,38,32,38,36,31,100,91,82,29.90,29.84,29.77,10,9,4,15,7,18,0.02,7,Rain,300
2012-12-22,43,37,30,39,33,30,100,95,89,29.84,29.71,29.61,10,5,0,9,2,12,0.06,5,Fog-Rain,323
2012-12-23,41,34,27,35,32,25,92,84,75,29.89,29.75,29.61,10,9,3,15,6,17,0.13,5,Rain-Snow,281
2012-12-24,48,38,28,34,32,28,100,77,53,30.19,30.05,29.81,10,10,10,17,9,22,0.02,2,Rain,233
2012-12-25,33,31,28,32,30,26,100,91,82,30.17,29.94,29.85,10,5,1,9,4,10,0.18,6,Snow,321
2012-12-26,36,34,31,34,32,30,100,91,82,30.01,29.90,29.82,10,8,4,10,5,12,0.03,7,Rain-Snow,260
2012-12-27,37,33,28,32,31,28,100,88,76,30.24,30.14,30.02,10,10,9,9,3,16,0.00,7,,242
2012-12-28,36,34,32,31,30,29,92,87,82,30.28,30.26,30.24,10,9,5,9,1,12,0.00,8,,7
2012-12-29,35,33,30,31,29,28,100,88,75,30.29,30.25,30.18,10,7,1,8,2,9,0.04,8,Snow,277
2012-12-30,36,29,22,30,27,20,92,84,75,30.40,30.37,30.28,10,8,5,10,3,15,0.00,6,,223
2012-12-31,32,28,23,28,26,21,100,89,78,30.56,30.43,30.38,10,7,1,10,2,12,0.00,8,,307